sensor_id;sensor_type;location;lat;lon;timestamp;pressure;altitude;pressure_sealevel;temperature;humidity
20115;BME280;10218;42.874;25.320;2023-02-16T00:00:14;98520.78;;;1.18;100.00
20115;BME280;10218;42.874;25.320;2023-02-16T00:02:41;98520.72;;;1.19;100.00
20115;BME280;10218;42.874;25.320;2023-02-16T00:05:22;98520.28;;;1.11;100.00
20115;BME280;10218;42.874;25.320;2023-02-16T00:07:51;98524.41;;;0.82;100.00
20115;BME280;10218;42.874;25.320;2023-02-16T00:10:19;98523.97;;;0.57;100.00
20115;BME280;10218;42.874;25.320;2023-02-16T00:12:46;98515.00;;;0.44;100.00
20115;BME280;10218;42.874;25.320;2023-02-16T00:15:33;98507.31;;;0.91;100.00
20115;BME280;10218;42.874;25.320;2023-02-16T00:18:01;98513.47;;;1.07;100.00
20115;BME280;10218;42.874;25.320;2023-02-16T00:20:30;98515.03;;;0.94;100.00
20115;BME280;10218;42.874;25.320;2023-02-16T00:22:58;98510.88;;;0.73;100.00
20115;BME280;10218;42.874;25.320;2023-02-16T00:25:25;98515.06;;;0.77;100.00
20115;BME280;10218;42.874;25.320;2023-02-16T00:27:52;98504.72;;;1.07;100.00
20115;BME280;10218;42.874;25.320;2023-02-16T00:30:20;98515.16;;;1.08;100.00
20115;BME280;10218;42.874;25.320;2023-02-16T00:32:48;98515.41;;;0.71;100.00
20115;BME280;10218;42.874;25.320;2023-02-16T00:35:17;98517.41;;;0.49;100.00
20115;BME280;10218;42.874;25.320;2023-02-16T00:37:48;98512.13;;;0.31;100.00
20115;BME280;10218;42.874;25.320;2023-02-16T00:40:16;98508.56;;;0.67;100.00
20115;BME280;10218;42.874;25.320;2023-02-16T00:42:44;98508.56;;;0.84;100.00
20115;BME280;10218;42.874;25.320;2023-02-16T00:45:18;98508.19;;;0.57;100.00
20115;BME280;10218;42.874;25.320;2023-02-16T00:47:49;98513.91;;;0.48;100.00
20115;BME280;10218;42.874;25.320;2023-02-16T00:50:29;98508.09;;;0.41;100.00
20115;BME280;10218;42.874;25.320;2023-02-16T00:52:57;98503.00;;;0.73;100.00
20115;BME280;10218;42.874;25.320;2023-02-16T00:55:34;98499.91;;;0.65;100.00
20115;BME280;10218;42.874;25.320;2023-02-16T00:58:06;98506.34;;;0.59;100.00
20115;BME280;10218;42.874;25.320;2023-02-16T01:00:59;98497.91;;;0.53;100.00
20115;BME280;10218;42.874;25.320;2023-02-16T01:03:29;98498.34;;;0.26;100.00
20115;BME280;10218;42.874;25.320;2023-02-16T01:05:56;98498.50;;;0.23;100.00
20115;BME280;10218;42.874;25.320;2023-02-16T01:08:42;98490.41;;;0.28;100.00
20115;BME280;10218;42.874;25.320;2023-02-16T01:11:30;98482.41;;;0.12;100.00
20115;BME280;10218;42.874;25.320;2023-02-16T01:13:57;98488.28;;;0.17;100.00
20115;BME280;10218;42.874;25.320;2023-02-16T01:16:30;98488.75;;;0.08;100.00
20115;BME280;10218;42.874;25.320;2023-02-16T01:18:59;98480.81;;;0.10;100.00
20115;BME280;10218;42.874;25.320;2023-02-16T01:21:26;98484.13;;;0.13;100.00
20115;BME280;10218;42.874;25.320;2023-02-16T01:23:54;98481.28;;;0.18;100.00
20115;BME280;10218;42.874;25.320;2023-02-16T01:26:21;98482.59;;;-0.10;100.00
20115;BME280;10218;42.874;25.320;2023-02-16T01:28:48;98489.06;;;0.02;100.00
20115;BME280;10218;42.874;25.320;2023-02-16T01:31:16;98486.47;;;0.19;100.00
20115;BME280;10218;42.874;25.320;2023-02-16T01:33:43;98482.38;;;0.48;100.00
20115;BME280;10218;42.874;25.320;2023-02-16T01:36:33;98472.84;;;0.63;100.00
20115;BME280;10218;42.874;25.320;2023-02-16T01:39:00;98469.22;;;0.65;100.00
20115;BME280;10218;42.874;25.320;2023-02-16T01:44:42;98466.03;;;0.41;100.00
20115;BME280;10218;42.874;25.320;2023-02-16T01:47:46;98479.19;;;0.24;100.00
20115;BME280;10218;42.874;25.320;2023-02-16T01:50:19;98473.69;;;0.80;100.00
20115;BME280;10218;42.874;25.320;2023-02-16T01:52:56;98470.63;;;0.88;100.00
20115;BME280;10218;42.874;25.320;2023-02-16T01:55:30;98468.59;;;0.93;100.00
20115;BME280;10218;42.874;25.320;2023-02-16T01:58:09;98474.19;;;0.87;100.00
20115;BME280;10218;42.874;25.320;2023-02-16T02:03:20;98473.81;;;0.77;100.00
20115;BME280;10218;42.874;25.320;2023-02-16T02:06:12;98471.59;;;0.70;100.00
20115;BME280;10218;42.874;25.320;2023-02-16T02:11:32;98470.69;;;0.54;100.00
20115;BME280;10218;42.874;25.320;2023-02-16T02:14:07;98465.97;;;0.60;100.00
20115;BME280;10218;42.874;25.320;2023-02-16T02:16:37;98474.09;;;0.56;100.00
20115;BME280;10218;42.874;25.320;2023-02-16T02:19:05;98463.09;;;0.65;100.00
20115;BME280;10218;42.874;25.320;2023-02-16T02:27:33;98470.78;;;0.35;100.00
20115;BME280;10218;42.874;25.320;2023-02-16T02:33:03;98473.44;;;-0.01;100.00
20115;BME280;10218;42.874;25.320;2023-02-16T02:35:37;98463.09;;;0.13;100.00
20115;BME280;10218;42.874;25.320;2023-02-16T02:38:28;98469.53;;;0.42;100.00
20115;BME280;10218;42.874;25.320;2023-02-16T02:41:11;98468.69;;;0.24;100.00
20115;BME280;10218;42.874;25.320;2023-02-16T02:43:56;98458.31;;;0.21;100.00
20115;BME280;10218;42.874;25.320;2023-02-16T02:46:29;98468.81;;;0.21;100.00
20115;BME280;10218;42.874;25.320;2023-02-16T02:48:58;98458.94;;;0.09;100.00
20115;BME280;10218;42.874;25.320;2023-02-16T02:51:25;98462.97;;;0.33;100.00
20115;BME280;10218;42.874;25.320;2023-02-16T02:54:21;98458.75;;;0.47;100.00
20115;BME280;10218;42.874;25.320;2023-02-16T03:00:07;98460.66;;;0.45;100.00
20115;BME280;10218;42.874;25.320;2023-02-16T03:03:04;98451.13;;;0.59;100.00
20115;BME280;10218;42.874;25.320;2023-02-16T03:05:36;98467.75;;;0.60;100.00
20115;BME280;10218;42.874;25.320;2023-02-16T03:08:09;98450.56;;;0.53;100.00
20115;BME280;10218;42.874;25.320;2023-02-16T03:10:49;98454.59;;;0.60;100.00
20115;BME280;10218;42.874;25.320;2023-02-16T03:13:39;98455.22;;;0.65;100.00
20115;BME280;10218;42.874;25.320;2023-02-16T03:16:14;98463.41;;;0.59;100.00
20115;BME280;10218;42.874;25.320;2023-02-16T03:18:44;98461.31;;;0.31;100.00
20115;BME280;10218;42.874;25.320;2023-02-16T03:21:33;98465.66;;;0.15;100.00
20115;BME280;10218;42.874;25.320;2023-02-16T03:24:23;98468.63;;;-0.10;100.00
20115;BME280;10218;42.874;25.320;2023-02-16T03:27:13;98466.56;;;0.31;100.00
20115;BME280;10218;42.874;25.320;2023-02-16T03:30:00;98463.91;;;0.15;100.00
20115;BME280;10218;42.874;25.320;2023-02-16T03:32:29;98463.72;;;0.18;100.00
20115;BME280;10218;42.874;25.320;2023-02-16T03:34:56;98468.69;;;0.24;100.00
20115;BME280;10218;42.874;25.320;2023-02-16T03:37:24;98463.63;;;0.03;100.00
20115;BME280;10218;42.874;25.320;2023-02-16T03:39:53;98473.03;;;0.25;100.00
20115;BME280;10218;42.874;25.320;2023-02-16T03:42:38;98469.91;;;0.17;100.00
20115;BME280;10218;42.874;25.320;2023-02-16T03:45:06;98475.94;;;0.19;100.00
20115;BME280;10218;42.874;25.320;2023-02-16T03:47:33;98482.13;;;0.18;100.00
20115;BME280;10218;42.874;25.320;2023-02-16T03:50:00;98479.34;;;0.21;100.00
20115;BME280;10218;42.874;25.320;2023-02-16T03:52:28;98473.62;;;0.13;100.00
20115;BME280;10218;42.874;25.320;2023-02-16T03:54:55;98472.69;;;0.14;100.00
20115;BME280;10218;42.874;25.320;2023-02-16T03:57:22;98468.19;;;0.16;100.00
20115;BME280;10218;42.874;25.320;2023-02-16T03:59:49;98474.59;;;-0.07;100.00
20115;BME280;10218;42.874;25.320;2023-02-16T04:02:18;98465.97;;;-0.27;100.00
20115;BME280;10218;42.874;25.320;2023-02-16T04:04:46;98463.47;;;-0.30;100.00
20115;BME280;10218;42.874;25.320;2023-02-16T04:07:13;98451.78;;;-0.23;100.00
20115;BME280;10218;42.874;25.320;2023-02-16T04:09:40;98455.31;;;-0.24;100.00
20115;BME280;10218;42.874;25.320;2023-02-16T04:12:08;98459.13;;;-0.49;100.00
20115;BME280;10218;42.874;25.320;2023-02-16T04:14:57;98441.94;;;-0.01;100.00
20115;BME280;10218;42.874;25.320;2023-02-16T04:17:24;98467.53;;;-0.23;100.00
20115;BME280;10218;42.874;25.320;2023-02-16T04:19:51;98459.22;;;0.03;100.00
20115;BME280;10218;42.874;25.320;2023-02-16T04:22:18;98463.09;;;0.13;100.00
20115;BME280;10218;42.874;25.320;2023-02-16T04:24:45;98462.22;;;-0.05;100.00
20115;BME280;10218;42.874;25.320;2023-02-16T04:27:12;98460.53;;;-0.41;100.00
20115;BME280;10218;42.874;25.320;2023-02-16T04:29:39;98462.47;;;-0.64;100.00
20115;BME280;10218;42.874;25.320;2023-02-16T04:32:07;98463.00;;;-0.38;100.00
20115;BME280;10218;42.874;25.320;2023-02-16T04:34:34;98456.09;;;-0.05;100.00
20115;BME280;10218;42.874;25.320;2023-02-16T04:37:02;98451.34;;;0.37;100.00
20115;BME280;10218;42.874;25.320;2023-02-16T04:39:30;98453.50;;;0.64;100.00
20115;BME280;10218;42.874;25.320;2023-02-16T04:41:58;98451.16;;;0.75;100.00
20115;BME280;10218;42.874;25.320;2023-02-16T04:44:25;98450.09;;;0.62;100.00
20115;BME280;10218;42.874;25.320;2023-02-16T04:46:52;98452.97;;;0.57;100.00
20115;BME280;10218;42.874;25.320;2023-02-16T04:49:19;98461.22;;;0.67;100.00
20115;BME280;10218;42.874;25.320;2023-02-16T04:51:47;98465.91;;;0.45;100.00
20115;BME280;10218;42.874;25.320;2023-02-16T04:54:14;98472.78;;;0.30;100.00
20115;BME280;10218;42.874;25.320;2023-02-16T04:56:45;98464.81;;;0.31;100.00
20115;BME280;10218;42.874;25.320;2023-02-16T04:59:14;98471.00;;;0.13;100.00
20115;BME280;10218;42.874;25.320;2023-02-16T05:01:43;98466.03;;;0.07;100.00
20115;BME280;10218;42.874;25.320;2023-02-16T05:04:10;98473.47;;;0.33;100.00
20115;BME280;10218;42.874;25.320;2023-02-16T05:06:38;98456.31;;;0.61;100.00
20115;BME280;10218;42.874;25.320;2023-02-16T05:09:07;98466.28;;;0.20;100.00
20115;BME280;10218;42.874;25.320;2023-02-16T05:11:34;98461.06;;;0.01;100.00
20115;BME280;10218;42.874;25.320;2023-02-16T05:14:27;98472.06;;;0.09;100.00
20115;BME280;10218;42.874;25.320;2023-02-16T05:17:17;98461.56;;;0.43;100.00
20115;BME280;10218;42.874;25.320;2023-02-16T05:19:51;98476.25;;;-0.23;100.00
20115;BME280;10218;42.874;25.320;2023-02-16T05:22:18;98479.34;;;-0.32;100.00
20115;BME280;10218;42.874;25.320;2023-02-16T05:24:46;98477.63;;;0.03;100.00
20115;BME280;10218;42.874;25.320;2023-02-16T05:27:23;98474.28;;;-0.55;100.00
20115;BME280;10218;42.874;25.320;2023-02-16T05:29:51;98470.53;;;-0.50;100.00
20115;BME280;10218;42.874;25.320;2023-02-16T05:32:18;98479.41;;;0.03;100.00
20115;BME280;10218;42.874;25.320;2023-02-16T05:34:46;98475.97;;;-0.35;100.00
20115;BME280;10218;42.874;25.320;2023-02-16T05:37:15;98474.84;;;-0.30;100.00
20115;BME280;10218;42.874;25.320;2023-02-16T05:39:44;98474.31;;;-0.19;100.00
20115;BME280;10218;42.874;25.320;2023-02-16T05:42:13;98470.22;;;0.28;100.00
20115;BME280;10218;42.874;25.320;2023-02-16T05:44:40;98467.28;;;0.52;100.00
20115;BME280;10218;42.874;25.320;2023-02-16T05:47:07;98475.59;;;-0.09;100.00
20115;BME280;10218;42.874;25.320;2023-02-16T05:49:35;98478.78;;;-0.03;100.00
20115;BME280;10218;42.874;25.320;2023-02-16T05:52:02;98474.41;;;0.50;100.00
20115;BME280;10218;42.874;25.320;2023-02-16T05:54:29;98481.34;;;0.33;100.00
20115;BME280;10218;42.874;25.320;2023-02-16T05:56:56;98464.38;;;0.40;100.00
20115;BME280;10218;42.874;25.320;2023-02-16T05:59:24;98473.91;;;0.76;100.00
20115;BME280;10218;42.874;25.320;2023-02-16T06:01:51;98453.09;;;0.71;100.00
20115;BME280;10218;42.874;25.320;2023-02-16T06:04:19;98476.25;;;0.98;100.00
20115;BME280;10218;42.874;25.320;2023-02-16T06:06:47;98482.91;;;0.37;100.00
20115;BME280;10218;42.874;25.320;2023-02-16T06:09:14;98483.91;;;0.52;100.00
20115;BME280;10218;42.874;25.320;2023-02-16T06:11:42;98476.19;;;0.49;100.00
20115;BME280;10218;42.874;25.320;2023-02-16T06:14:13;98490.75;;;0.03;100.00
20115;BME280;10218;42.874;25.320;2023-02-16T06:16:42;98491.72;;;0.19;100.00
20115;BME280;10218;42.874;25.320;2023-02-16T06:19:11;98490.84;;;0.36;100.00
20115;BME280;10218;42.874;25.320;2023-02-16T06:21:38;98504.81;;;0.55;100.00
20115;BME280;10218;42.874;25.320;2023-02-16T06:24:08;98503.31;;;0.67;100.00
20115;BME280;10218;42.874;25.320;2023-02-16T06:26:36;98497.25;;;0.82;100.00
20115;BME280;10218;42.874;25.320;2023-02-16T06:29:04;98502.44;;;1.01;100.00
20115;BME280;10218;42.874;25.320;2023-02-16T06:31:31;98504.56;;;1.10;100.00
20115;BME280;10218;42.874;25.320;2023-02-16T06:34:02;98507.13;;;1.27;100.00
20115;BME280;10218;42.874;25.320;2023-02-16T06:36:30;98488.31;;;1.02;100.00
20115;BME280;10218;42.874;25.320;2023-02-16T06:38:57;98503.66;;;1.11;100.00
20115;BME280;10218;42.874;25.320;2023-02-16T06:41:24;98503.28;;;1.17;100.00
20115;BME280;10218;42.874;25.320;2023-02-16T06:44:02;98505.25;;;1.46;100.00
20115;BME280;10218;42.874;25.320;2023-02-16T06:46:30;98507.84;;;2.09;100.00
20115;BME280;10218;42.874;25.320;2023-02-16T06:48:57;98504.75;;;1.87;100.00
20115;BME280;10218;42.874;25.320;2023-02-16T06:51:25;98495.69;;;2.52;100.00
20115;BME280;10218;42.874;25.320;2023-02-16T06:53:53;98501.41;;;2.74;100.00
20115;BME280;10218;42.874;25.320;2023-02-16T06:56:21;98498.59;;;2.91;100.00
20115;BME280;10218;42.874;25.320;2023-02-16T06:58:48;98497.38;;;2.97;100.00
20115;BME280;10218;42.874;25.320;2023-02-16T07:01:16;98505.59;;;3.21;100.00
20115;BME280;10218;42.874;25.320;2023-02-16T07:03:50;98493.66;;;3.84;100.00
20115;BME280;10218;42.874;25.320;2023-02-16T07:06:18;98507.84;;;3.69;100.00
20115;BME280;10218;42.874;25.320;2023-02-16T07:08:46;98490.28;;;3.68;100.00
20115;BME280;10218;42.874;25.320;2023-02-16T07:11:13;98497.84;;;3.46;100.00
20115;BME280;10218;42.874;25.320;2023-02-16T07:13:40;98492.41;;;3.21;100.00
20115;BME280;10218;42.874;25.320;2023-02-16T07:16:08;98501.16;;;3.35;100.00
20115;BME280;10218;42.874;25.320;2023-02-16T07:18:38;98486.34;;;4.02;100.00
20115;BME280;10218;42.874;25.320;2023-02-16T07:21:06;98487.44;;;4.12;100.00
20115;BME280;10218;42.874;25.320;2023-02-16T07:23:33;98489.75;;;4.04;100.00
20115;BME280;10218;42.874;25.320;2023-02-16T07:26:00;98483.22;;;4.10;100.00
20115;BME280;10218;42.874;25.320;2023-02-16T07:28:27;98492.56;;;4.28;100.00
20115;BME280;10218;42.874;25.320;2023-02-16T07:30:54;98481.69;;;4.85;100.00
20115;BME280;10218;42.874;25.320;2023-02-16T07:33:22;98482.94;;;4.79;100.00
20115;BME280;10218;42.874;25.320;2023-02-16T07:35:49;98482.94;;;5.55;100.00
20115;BME280;10218;42.874;25.320;2023-02-16T07:38:16;98477.66;;;5.42;100.00
20115;BME280;10218;42.874;25.320;2023-02-16T07:40:43;98477.13;;;6.47;100.00
20115;BME280;10218;42.874;25.320;2023-02-16T07:43:11;98472.34;;;6.04;100.00
20115;BME280;10218;42.874;25.320;2023-02-16T07:45:38;98473.44;;;5.27;100.00
20115;BME280;10218;42.874;25.320;2023-02-16T07:48:05;98467.63;;;6.90;100.00
20115;BME280;10218;42.874;25.320;2023-02-16T07:50:33;98473.34;;;5.78;100.00
20115;BME280;10218;42.874;25.320;2023-02-16T07:53:01;98470.06;;;7.04;100.00
20115;BME280;10218;42.874;25.320;2023-02-16T07:55:29;98462.78;;;6.95;100.00
20115;BME280;10218;42.874;25.320;2023-02-16T07:57:56;98458.09;;;6.99;100.00
20115;BME280;10218;42.874;25.320;2023-02-16T08:00:24;98455.31;;;7.00;100.00
20115;BME280;10218;42.874;25.320;2023-02-16T08:02:51;98459.38;;;6.82;100.00
20115;BME280;10218;42.874;25.320;2023-02-16T08:05:18;98448.19;;;7.12;100.00
20115;BME280;10218;42.874;25.320;2023-02-16T08:07:45;98451.72;;;7.46;100.00
20115;BME280;10218;42.874;25.320;2023-02-16T08:10:14;98450.56;;;8.47;100.00
20115;BME280;10218;42.874;25.320;2023-02-16T08:12:41;98440.03;;;8.66;95.08
20115;BME280;10218;42.874;25.320;2023-02-16T08:15:09;98451.25;;;8.49;98.69
20115;BME280;10218;42.874;25.320;2023-02-16T08:17:38;98445.59;;;9.56;80.56
20115;BME280;10218;42.874;25.320;2023-02-16T08:20:06;98444.81;;;8.63;86.16
20115;BME280;10218;42.874;25.320;2023-02-16T08:22:34;98442.72;;;9.08;84.22
20115;BME280;10218;42.874;25.320;2023-02-16T08:25:02;98414.88;;;7.95;93.23
20115;BME280;10218;42.874;25.320;2023-02-16T08:27:32;98442.25;;;8.82;90.36
20115;BME280;10218;42.874;25.320;2023-02-16T08:29:59;98439.53;;;9.44;77.99
20115;BME280;10218;42.874;25.320;2023-02-16T08:32:27;98439.50;;;10.62;69.81
20115;BME280;10218;42.874;25.320;2023-02-16T08:34:54;98438.53;;;9.45;75.04
20115;BME280;10218;42.874;25.320;2023-02-16T08:37:23;98434.91;;;8.74;82.16
20115;BME280;10218;42.874;25.320;2023-02-16T08:39:51;98431.31;;;10.16;71.12
20115;BME280;10218;42.874;25.320;2023-02-16T08:42:18;98434.31;;;10.61;66.39
20115;BME280;10218;42.874;25.320;2023-02-16T08:44:45;98427.84;;;10.25;66.55
20115;BME280;10218;42.874;25.320;2023-02-16T08:47:13;98420.97;;;10.51;72.15
20115;BME280;10218;42.874;25.320;2023-02-16T08:49:40;98430.34;;;11.40;60.01
20115;BME280;10218;42.874;25.320;2023-02-16T08:52:07;98423.63;;;10.70;62.22
20115;BME280;10218;42.874;25.320;2023-02-16T08:54:36;98425.69;;;11.70;59.79
20115;BME280;10218;42.874;25.320;2023-02-16T08:57:03;98430.53;;;12.38;56.31
20115;BME280;10218;42.874;25.320;2023-02-16T08:59:30;98423.56;;;14.42;51.14
20115;BME280;10218;42.874;25.320;2023-02-16T09:01:59;98422.56;;;14.51;49.62
20115;BME280;10218;42.874;25.320;2023-02-16T09:04:27;98425.41;;;15.23;46.17
20115;BME280;10218;42.874;25.320;2023-02-16T09:06:56;98420.59;;;15.65;46.29
20115;BME280;10218;42.874;25.320;2023-02-16T09:09:25;98422.22;;;14.46;48.17
20115;BME280;10218;42.874;25.320;2023-02-16T09:11:53;98418.38;;;13.05;51.08
20115;BME280;10218;42.874;25.320;2023-02-16T09:14:20;98428.66;;;13.36;50.78
20115;BME280;10218;42.874;25.320;2023-02-16T09:16:49;98423.78;;;13.65;51.22
20115;BME280;10218;42.874;25.320;2023-02-16T09:19:18;98415.22;;;14.11;49.44
20115;BME280;10218;42.874;25.320;2023-02-16T09:21:47;98408.44;;;14.66;48.01
20115;BME280;10218;42.874;25.320;2023-02-16T09:24:17;98416.00;;;15.11;45.41
20115;BME280;10218;42.874;25.320;2023-02-16T09:26:44;98406.13;;;13.28;49.95
20115;BME280;10218;42.874;25.320;2023-02-16T09:29:12;98416.44;;;14.33;49.15
20115;BME280;10218;42.874;25.320;2023-02-16T09:31:41;98415.63;;;13.49;50.82
20115;BME280;10218;42.874;25.320;2023-02-16T09:36:42;98415.94;;;14.30;47.61
20115;BME280;10218;42.874;25.320;2023-02-16T09:39:10;98413.88;;;16.39;44.81
20115;BME280;10218;42.874;25.320;2023-02-16T09:44:46;98417.38;;;15.78;42.95
20115;BME280;10218;42.874;25.320;2023-02-16T09:47:27;98413.13;;;15.28;46.07
20115;BME280;10218;42.874;25.320;2023-02-16T09:52:46;98394.09;;;15.14;46.13
20115;BME280;10218;42.874;25.320;2023-02-16T09:55:18;98388.09;;;16.06;43.93
20115;BME280;10218;42.874;25.320;2023-02-16T09:57:54;98393.81;;;15.72;44.63
20115;BME280;10218;42.874;25.320;2023-02-16T10:08:44;98380.84;;;16.83;43.75
20115;BME280;10218;42.874;25.320;2023-02-16T10:11:29;98377.37;;;15.59;43.55
20115;BME280;10218;42.874;25.320;2023-02-16T10:16:48;98367.63;;;16.88;42.41
20115;BME280;10218;42.874;25.320;2023-02-16T10:19:23;98364.84;;;15.74;43.29
20115;BME280;10218;42.874;25.320;2023-02-16T10:21:55;98356.50;;;16.45;42.80
20115;BME280;10218;42.874;25.320;2023-02-16T10:24:26;98351.88;;;16.31;43.16
20115;BME280;10218;42.874;25.320;2023-02-16T10:27:02;98362.37;;;15.64;43.44
20115;BME280;10218;42.874;25.320;2023-02-16T10:29:33;98347.47;;;15.76;43.93
20115;BME280;10218;42.874;25.320;2023-02-16T10:34:54;98343.97;;;16.30;42.26
20115;BME280;10218;42.874;25.320;2023-02-16T10:42:46;98341.19;;;18.36;38.45
20115;BME280;10218;42.874;25.320;2023-02-16T10:45:34;98341.31;;;15.99;41.18
20115;BME280;10218;42.874;25.320;2023-02-16T10:48:03;98338.25;;;16.02;40.28
20115;BME280;10218;42.874;25.320;2023-02-16T10:53:08;98328.44;;;16.54;39.09
20115;BME280;10218;42.874;25.320;2023-02-16T10:55:37;98327.94;;;18.63;36.61
20115;BME280;10218;42.874;25.320;2023-02-16T10:58:19;98326.81;;;17.20;38.63
20115;BME280;10218;42.874;25.320;2023-02-16T11:00:53;98320.50;;;19.55;35.90
20115;BME280;10218;42.874;25.320;2023-02-16T11:03:24;98319.19;;;18.89;34.71
20115;BME280;10218;42.874;25.320;2023-02-16T11:05:54;98316.25;;;17.84;35.86
20115;BME280;10218;42.874;25.320;2023-02-16T11:08:21;98318.59;;;17.87;36.31
20115;BME280;10218;42.874;25.320;2023-02-16T11:10:52;98315.69;;;18.67;34.15
20115;BME280;10218;42.874;25.320;2023-02-16T11:13:30;98308.66;;;20.30;32.43
20115;BME280;10218;42.874;25.320;2023-02-16T11:16:04;98308.06;;;18.34;33.03
20115;BME280;10218;42.874;25.320;2023-02-16T11:18:35;98305.50;;;18.97;33.91
20115;BME280;10218;42.874;25.320;2023-02-16T11:21:05;98301.87;;;18.41;34.51
20115;BME280;10218;42.874;25.320;2023-02-16T11:23:40;98303.25;;;17.94;34.49
20115;BME280;10218;42.874;25.320;2023-02-16T11:28:47;98294.44;;;17.85;33.74
20115;BME280;10218;42.874;25.320;2023-02-16T11:31:36;98288.31;;;18.13;33.14
20115;BME280;10218;42.874;25.320;2023-02-16T11:34:25;98293.75;;;19.45;32.28
20115;BME280;10218;42.874;25.320;2023-02-16T11:40:19;98272.88;;;18.34;33.27
20115;BME280;10218;42.874;25.320;2023-02-16T11:42:50;98282.69;;;19.12;31.42
20115;BME280;10218;42.874;25.320;2023-02-16T11:48:03;98273.13;;;18.39;31.72
20115;BME280;10218;42.874;25.320;2023-02-16T11:50:38;98270.25;;;17.48;32.54
20115;BME280;10218;42.874;25.320;2023-02-16T11:55:46;98271.44;;;17.75;32.50
20115;BME280;10218;42.874;25.320;2023-02-16T12:01:08;98253.56;;;20.49;30.53
20115;BME280;10218;42.874;25.320;2023-02-16T12:12:12;98235.63;;;20.55;30.79
20115;BME280;10218;42.874;25.320;2023-02-16T12:20:43;98228.75;;;19.17;31.72
20115;BME280;10218;42.874;25.320;2023-02-16T12:34:54;98212.47;;;21.43;29.32
20115;BME280;10218;42.874;25.320;2023-02-16T12:45:22;98201.91;;;19.83;30.08
20115;BME280;10218;42.874;25.320;2023-02-16T12:48:03;98206.78;;;20.54;29.96
20115;BME280;10218;42.874;25.320;2023-02-16T12:50:35;98198.75;;;19.60;29.93
20115;BME280;10218;42.874;25.320;2023-02-16T12:55:58;98193.34;;;21.62;28.02
20115;BME280;10218;42.874;25.320;2023-02-16T12:58:54;98190.50;;;21.44;28.54
20115;BME280;10218;42.874;25.320;2023-02-16T13:01:29;98197.59;;;22.21;28.58
20115;BME280;10218;42.874;25.320;2023-02-16T13:04:05;98187.13;;;22.49;27.74
20115;BME280;10218;42.874;25.320;2023-02-16T13:12:30;98178.78;;;19.27;30.66
20115;BME280;10218;42.874;25.320;2023-02-16T13:15:11;98171.50;;;21.38;28.91
20115;BME280;10218;42.874;25.320;2023-02-16T13:17:56;98172.56;;;20.26;29.53
20115;BME280;10218;42.874;25.320;2023-02-16T13:20:24;98171.19;;;18.68;31.06
20115;BME280;10218;42.874;25.320;2023-02-16T13:34:30;98150.59;;;20.01;29.94
20115;BME280;10218;42.874;25.320;2023-02-16T13:37:20;98149.50;;;20.88;29.24
20115;BME280;10218;42.874;25.320;2023-02-16T13:43:29;98145.09;;;23.36;26.78
20115;BME280;10218;42.874;25.320;2023-02-16T13:45:59;98142.69;;;20.06;29.45
20115;BME280;10218;42.874;25.320;2023-02-16T13:48:46;98141.91;;;19.32;30.86
20115;BME280;10218;42.874;25.320;2023-02-16T13:51:17;98139.81;;;19.28;31.73
20115;BME280;10218;42.874;25.320;2023-02-16T13:54:05;98142.75;;;18.85;32.47
20115;BME280;10218;42.874;25.320;2023-02-16T13:56:36;98148.34;;;17.36;33.53
20115;BME280;10218;42.874;25.320;2023-02-16T14:01:45;98146.47;;;19.32;31.44
20115;BME280;10218;42.874;25.320;2023-02-16T14:12:14;98140.25;;;18.84;31.02
20115;BME280;10218;42.874;25.320;2023-02-16T14:27:58;98144.81;;;18.49;31.48
20115;BME280;10218;42.874;25.320;2023-02-16T14:30:28;98137.41;;;18.57;31.57
20115;BME280;10218;42.874;25.320;2023-02-16T14:33:24;98129.84;;;20.92;29.68
20115;BME280;10218;42.874;25.320;2023-02-16T14:38:33;98128.53;;;21.15;29.34
20115;BME280;10218;42.874;25.320;2023-02-16T14:41:09;98123.03;;;20.70;29.82
20115;BME280;10218;42.874;25.320;2023-02-16T14:43:42;98122.00;;;20.65;29.27
20115;BME280;10218;42.874;25.320;2023-02-16T14:55:01;98119.69;;;17.78;33.67
20115;BME280;10218;42.874;25.320;2023-02-16T15:00:32;98126.13;;;18.26;33.20
20115;BME280;10218;42.874;25.320;2023-02-16T15:03:15;98123.94;;;17.66;33.43
20115;BME280;10218;42.874;25.320;2023-02-16T15:05:58;98126.66;;;16.94;34.79
20115;BME280;10218;42.874;25.320;2023-02-16T15:08:29;98129.69;;;16.03;36.43
20115;BME280;10218;42.874;25.320;2023-02-16T15:11:11;98131.66;;;14.24;39.28
20115;BME280;10218;42.874;25.320;2023-02-16T15:13:40;98126.59;;;12.99;42.50
20115;BME280;10218;42.874;25.320;2023-02-16T15:16:10;98128.63;;;13.05;43.33
20115;BME280;10218;42.874;25.320;2023-02-16T15:18:45;98127.81;;;13.13;45.17
20115;BME280;10218;42.874;25.320;2023-02-16T15:21:26;98130.22;;;12.90;45.50
20115;BME280;10218;42.874;25.320;2023-02-16T15:23:57;98134.34;;;12.34;46.18
20115;BME280;10218;42.874;25.320;2023-02-16T15:26:27;98131.81;;;12.59;45.48
20115;BME280;10218;42.874;25.320;2023-02-16T15:28:57;98137.16;;;12.25;48.46
20115;BME280;10218;42.874;25.320;2023-02-16T15:31:36;98135.22;;;12.09;50.48
20115;BME280;10218;42.874;25.320;2023-02-16T15:34:12;98126.03;;;10.97;51.30
20115;BME280;10218;42.874;25.320;2023-02-16T15:36:42;98137.31;;;10.73;52.89
20115;BME280;10218;42.874;25.320;2023-02-16T15:39:15;98143.25;;;10.67;53.12
20115;BME280;10218;42.874;25.320;2023-02-16T15:42:09;98141.94;;;10.07;55.96
20115;BME280;10218;42.874;25.320;2023-02-16T15:44:38;98126.69;;;9.90;59.05
20115;BME280;10218;42.874;25.320;2023-02-16T15:47:29;98133.09;;;9.97;59.97
20115;BME280;10218;42.874;25.320;2023-02-16T15:49:55;98135.97;;;9.67;65.35
20115;BME280;10218;42.874;25.320;2023-02-16T15:52:32;98124.75;;;9.63;66.85
20115;BME280;10218;42.874;25.320;2023-02-16T15:55:05;98131.38;;;9.59;70.26